Time;durP1;ratioP1;P1;durP2;ratioP2;P2;SDS_P1;SDS_P2;PMS_P1;PMS_P2;Temp;Humidity;BMP_temperature;BMP_pressure;BME280_temperature;BME280_humidity;BME280_pressure;Samples;Min_cycle;Max_cycle;Signal;HPM_P1;HPM_P2
2022/07/18 00:00:10;;;;;;;9.20;4.50;;;;;;;14.50;60.44;101363.46;108888;1267;21997;-76
2022/07/18 00:02:59;;;;;;;7.20;4.40;;;;;;;14.48;60.51;101366.76;108982;1267;23052;-76
2022/07/18 00:05:28;;;;;;;8.90;4.70;;;;;;;14.42;60.58;101368.20;109188;1267;21978;-76
2022/07/18 00:07:57;;;;;;;7.70;4.50;;;;;;;14.38;60.85;101366.59;109067;1267;22819;-76
2022/07/18 00:10:26;;;;;;;7.30;3.90;;;;;;;14.31;60.90;101367.42;109121;1267;23676;-76
2022/07/18 00:12:55;;;;;;;6.90;3.80;;;;;;;14.25;61.12;101369.02;109137;1263;22041;-76
2022/07/18 00:15:25;;;;;;;5.80;3.50;;;;;;;14.21;61.26;101371.95;109605;1263;22740;-75
2022/07/18 00:17:54;;;;;;;6.50;4.30;;;;;;;14.18;61.34;101370.33;109592;1261;23715;-77
2022/07/18 00:20:26;;;;;;;7.10;4.60;;;;;;;14.15;61.34;101367.66;109098;1267;22004;-76
2022/07/18 00:22:55;;;;;;;6.10;4.00;;;;;;;14.12;61.41;101365.28;109097;1268;23070;-76
2022/07/18 00:25:24;;;;;;;6.80;3.60;;;;;;;14.11;61.60;101363.13;109109;1267;22707;-76
2022/07/18 00:27:53;;;;;;;8.20;4.00;;;;;;;14.12;61.88;101365.11;109145;1267;22002;-76
2022/07/18 00:30:22;;;;;;;6.30;3.70;;;;;;;14.14;61.99;101367.58;109187;1267;23715;-77
2022/07/18 00:32:51;;;;;;;7.20;4.00;;;;;;;14.14;61.82;101370.42;108929;1267;23710;-77
2022/07/18 00:35:21;;;;;;;8.30;3.90;;;;;;;14.11;61.80;101368.89;108841;1270;21988;-76
2022/07/18 00:37:50;;;;;;;6.20;3.70;;;;;;;14.08;61.74;101369.98;108834;1267;21979;-76
2022/07/18 00:40:19;;;;;;;8.50;3.60;;;;;;;14.04;61.68;101372.95;109251;1267;23646;-76
2022/07/18 00:42:48;;;;;;;9.00;4.70;;;;;;;13.99;61.60;101376.10;108843;1273;23082;-77
2022/07/18 00:45:20;;;;;;;9.80;4.80;;;;;;;13.96;61.73;101375.00;108733;1273;23858;-78
2022/07/18 00:47:51;;;;;;;8.70;4.60;;;;;;;13.95;62.01;101374.27;108899;1270;23024;-77
2022/07/18 00:50:23;;;;;;;7.50;4.60;;;;;;;13.94;62.26;101371.48;108609;1276;21998;-77
2022/07/18 00:52:58;;;;;;;7.40;5.00;;;;;;;13.94;62.32;101372.21;108454;1276;21988;-77
2022/07/18 00:55:28;;;;;;;9.90;6.20;;;;;;;13.94;62.38;101371.45;108443;1276;23600;-77
2022/07/18 00:57:58;;;;;;;8.70;5.20;;;;;;;13.95;62.32;101371.08;108395;1276;22855;-77
2022/07/18 01:03:14;;;;;;;8.60;4.80;;;;;;;13.90;62.62;101371.58;109129;1267;22017;-78
2022/07/18 01:05:43;;;;;;;6.80;5.30;;;;;;;13.87;62.72;101368.52;109059;1267;23014;-78
2022/07/18 01:08:15;;;;;;;8.70;5.20;;;;;;;13.84;62.72;101369.54;109043;1264;21972;-78
2022/07/18 01:10:44;;;;;;;;;;;;;;;13.82;62.73;101367.69;109768;1262;22422;-78
2022/07/18 01:13:13;;;;;;;11.50;6.90;;;;;;;13.71;62.92;101364.04;109586;1261;23136;-78
2022/07/18 01:15:43;;;;;;;10.70;6.80;;;;;;;13.68;62.89;101364.34;109779;1261;21972;-78
2022/07/18 01:18:12;;;;;;;12.60;6.70;;;;;;;13.70;62.92;101363.45;109654;1260;21940;-77
2022/07/18 01:20:41;;;;;;;8.90;5.90;;;;;;;13.70;62.87;101362.02;109697;1261;21970;-77
2022/07/18 01:23:10;;;;;;;8.00;5.50;;;;;;;13.70;62.95;101361.89;108949;1267;23631;-78
2022/07/18 01:25:39;;;;;;;9.70;5.80;;;;;;;13.67;62.84;101361.26;108886;1267;23641;-78
2022/07/18 01:28:08;;;;;;;11.70;6.00;;;;;;;13.63;62.82;101369.67;108917;1267;21980;-77
2022/07/18 01:30:37;;;;;;;8.70;4.70;;;;;;;13.55;62.88;101367.86;109077;1267;21991;-77
2022/07/18 01:33:07;;;;;;;7.40;5.40;;;;;;;13.54;63.08;101369.41;108910;1266;22902;-77
2022/07/18 01:35:36;;;;;;;11.60;6.30;;;;;;;13.56;63.14;101370.94;108963;1267;21990;-77
2022/07/18 01:38:06;;;;;;;7.40;5.20;;;;;;;13.56;62.98;101369.52;108703;1272;22053;-75
2022/07/18 01:40:35;;;;;;;10.60;5.90;;;;;;;13.58;62.94;101368.83;108706;1267;22075;-76
2022/07/18 01:43:04;;;;;;;13.90;6.00;;;;;;;13.57;62.75;101371.02;109127;1267;22386;-77
2022/07/18 01:45:34;;;;;;;9.90;5.30;;;;;;;13.56;62.87;101367.70;108883;1270;21978;-77
2022/07/18 01:48:03;;;;;;;8.70;5.40;;;;;;;13.57;63.09;101365.12;108771;1273;22889;-77
2022/07/18 01:50:32;;;;;;;7.20;5.30;;;;;;;13.60;63.23;101366.62;108679;1273;23622;-77
2022/07/18 01:53:04;;;;;;;6.80;5.50;;;;;;;13.61;63.14;101368.27;108688;1273;23629;-77
2022/07/18 01:55:33;;;;;;;8.70;5.60;;;;;;;13.60;63.14;101367.54;108720;1271;22016;-77
2022/07/18 01:58:02;;;;;;;8.30;5.10;;;;;;;13.57;63.15;101366.90;108391;1276;23726;-77
2022/07/18 02:00:31;;;;;;;9.60;4.90;;;;;;;13.53;63.11;101366.67;108492;1274;23689;-77
2022/07/18 02:03:01;;;;;;;9.40;5.40;;;;;;;13.47;63.11;101369.60;108511;1271;22766;-77
2022/07/18 02:05:30;;;;;;;6.60;4.90;;;;;;;13.45;63.46;101366.65;108754;1271;22163;-77
2022/07/18 02:07:59;;;;;;;8.20;5.00;;;;;;;13.46;63.55;101365.67;108721;1267;22276;-77
2022/07/18 02:10:28;;;;;;;8.00;5.30;;;;;;;13.47;63.51;101366.92;109179;1267;21966;-76
2022/07/18 02:12:57;;;;;;;8.40;5.00;;;;;;;13.47;63.46;101366.27;108724;1271;22210;-77
2022/07/18 02:15:26;;;;;;;6.10;4.80;;;;;;;13.48;63.61;101370.23;108731;1270;22787;-77
2022/07/18 02:17:55;;;;;;;8.90;5.70;;;;;;;13.50;63.68;101367.39;108926;1267;21999;-77
2022/07/18 02:20:26;;;;;;;9.00;5.30;;;;;;;13.52;63.74;101371.60;108962;1267;21980;-76
2022/07/18 02:22:56;;;;;;;8.00;5.10;;;;;;;13.54;63.71;101370.32;109031;1267;21996;-76
2022/07/18 02:25:25;;;;;;;8.20;4.80;;;;;;;13.53;63.64;101370.58;108933;1266;23725;-78
2022/07/18 02:27:55;;;;;;;10.80;5.10;;;;;;;13.52;63.54;101371.04;108744;1273;23868;-76
2022/07/18 02:30:24;;;;;;;6.40;5.20;;;;;;;13.48;63.49;101370.39;108401;1276;22001;-76
2022/07/18 02:32:55;;;;;;;7.50;5.30;;;;;;;13.44;63.62;101372.78;108269;1279;23109;-77
2022/07/18 02:35:24;;;;;;;9.90;5.40;;;;;;;13.42;63.68;101373.84;108282;1279;23802;-77
2022/07/18 02:37:55;;;;;;;14.80;5.40;;;;;;;13.43;63.65;101371.98;108219;1279;23094;-77
2022/07/18 02:40:24;;;;;;;7.40;6.00;;;;;;;13.42;63.66;101367.99;108273;1279;22008;-77
2022/07/18 02:42:54;;;;;;;6.30;4.50;;;;;;;13.42;63.66;101368.66;108168;1279;23642;-77
2022/07/18 02:45:23;;;;;;;8.10;5.60;;;;;;;13.44;63.73;101370.98;107742;1279;23713;-77
2022/07/18 02:47:55;;;;;;;7.90;5.00;;;;;;;13.46;63.66;101369.36;108431;1273;21988;-77
2022/07/18 02:50:24;;;;;;;8.10;5.70;;;;;;;13.47;63.61;101370.56;108695;1269;22258;-77
2022/07/18 02:52:53;;;;;;;8.40;5.60;;;;;;;13.45;63.42;101372.19;108456;1273;23798;-77
2022/07/18 02:55:24;;;;;;;12.30;6.80;;;;;;;13.43;63.47;101371.81;108288;1276;23666;-77
2022/07/18 02:57:53;;;;;;;11.90;6.40;;;;;;;13.41;63.42;101372.34;107998;1282;23699;-77
2022/07/18 03:00:22;;;;;;;8.90;5.70;;;;;;;13.39;63.31;101372.34;108006;1282;21994;-76
2022/07/18 03:02:51;;;;;;;12.20;6.10;;;;;;;13.39;63.31;101370.67;108070;1279;23223;-77
2022/07/18 03:05:21;;;;;;;8.30;5.80;;;;;;;13.37;63.39;101366.89;108414;1279;22109;-77
2022/07/18 03:07:50;;;;;;;10.60;6.40;;;;;;;13.39;63.48;101366.56;108402;1279;23204;-77
2022/07/18 03:10:21;;;;;;;8.20;5.80;;;;;;;13.42;63.65;101367.86;108464;1270;22062;-77
2022/07/18 03:12:51;;;;;;;10.60;6.40;;;;;;;13.44;63.66;101369.70;108883;1267;21982;-77
2022/07/18 03:15:20;;;;;;;14.00;6.70;;;;;;;13.48;63.74;101366.85;108589;1270;23880;-78
2022/07/18 03:17:49;;;;;;;9.70;6.70;;;;;;;13.52;63.73;101368.77;108491;1273;21987;-77
2022/07/18 03:20:18;;;;;;;11.60;7.00;;;;;;;13.53;63.61;101366.09;108485;1276;23710;-78
2022/07/18 03:22:48;;;;;;;12.50;6.30;;;;;;;13.56;63.61;101365.84;108455;1278;22308;-77
2022/07/18 03:25:17;;;;;;;12.90;6.10;;;;;;;13.56;63.62;101367.56;108375;1276;22002;-78
2022/07/18 03:27:47;;;;;;;9.30;5.40;;;;;;;13.57;63.62;101369.42;108113;1276;22058;-76
2022/07/18 03:30:17;;;;;;;11.80;6.20;;;;;;;13.60;63.60;101369.70;108394;1276;21987;-77
2022/07/18 03:32:46;;;;;;;14.90;6.70;;;;;;;13.63;63.48;101372.34;108341;1273;23797;-77
2022/07/18 03:35:17;;;;;;;10.50;6.60;;;;;;;13.67;63.44;101371.02;108720;1267;21993;-78
2022/07/18 03:37:49;;;;;;;9.10;6.00;;;;;;;13.72;63.49;101372.95;109173;1263;23658;-77
2022/07/18 03:40:18;;;;;;;9.50;5.80;;;;;;;13.77;63.27;101371.55;109622;1260;21972;-78
2022/07/18 03:42:49;;;;;;;7.80;6.10;;;;;;;13.84;63.41;101373.30;109572;1260;22063;-77
2022/07/18 03:45:19;;;;;;;8.90;6.30;;;;;;;13.88;63.22;101374.80;109725;1260;22440;-77
2022/07/18 03:47:48;;;;;;;9.70;6.40;;;;;;;13.93;63.20;101376.55;109631;1261;23613;-77
2022/07/18 03:50:17;;;;;;;11.90;7.60;;;;;;;13.96;63.07;101381.41;109836;1260;21969;-77
2022/07/18 03:52:46;;;;;;;11.10;5.80;;;;;;;13.98;63.02;101381.94;109886;1261;23055;-77
2022/07/18 03:55:15;;;;;;;12.40;6.50;;;;;;;14.01;63.13;101380.98;109710;1260;23077;-78
2022/07/18 03:57:45;;;;;;;13.60;6.30;;;;;;;14.06;63.06;101379.09;108841;1267;23053;-77
2022/07/18 04:00:14;;;;;;;11.20;6.50;;;;;;;14.10;62.90;101378.07;108833;1269;22203;-77
2022/07/18 04:02:48;;;;;;;10.40;7.10;;;;;;;14.17;62.90;101378.99;108929;1267;22083;-77
2022/07/18 04:05:17;;;;;;;9.30;5.90;;;;;;;14.23;62.87;101377.93;108904;1267;21976;-77
2022/07/18 04:07:50;;;;;;;10.60;6.00;;;;;;;14.29;62.78;101375.18;108907;1267;21997;-77
2022/07/18 04:10:22;;;;;;;8.70;6.20;;;;;;;14.34;62.61;101374.77;108926;1267;22034;-77
2022/07/18 04:12:56;;;;;;;9.90;5.70;;;;;;;14.39;62.46;101379.77;108946;1267;21976;-80
2022/07/18 04:15:27;;;;;;;11.00;7.10;;;;;;;14.44;62.53;101382.50;109258;1266;23072;-80
2022/07/18 04:18:04;;;;;;;11.00;6.30;;;;;;;14.50;62.37;101380.52;109265;1265;21987;-80
2022/07/18 04:20:35;;;;;;;9.60;5.70;;;;;;;14.52;61.91;101379.02;109094;1270;21985;-77
2022/07/18 04:23:09;;;;;;;9.90;6.30;;;;;;;14.52;61.69;101376.05;108790;1270;23699;-78
2022/07/18 04:25:50;;;;;;;10.40;6.70;;;;;;;14.56;61.79;101378.40;108877;1270;23820;-79
2022/07/18 04:28:30;;;;;;;13.20;5.70;;;;;;;14.64;61.71;101376.89;108505;1270;22494;-78
2022/07/18 04:31:12;;;;;;;7.70;5.80;;;;;;;14.68;61.51;101376.92;108710;1270;23103;-78
2022/07/18 04:33:48;;;;;;;7.50;5.50;;;;;;;14.73;61.40;101378.57;108506;1273;22045;-78
2022/07/18 04:36:29;;;;;;;;;;;;;;;14.77;61.22;101376.85;108740;1273;23097;-78
2022/07/18 04:39:20;;;;;;;10.70;7.10;;;;;;;14.73;61.19;101374.45;109024;1267;21991;-78
2022/07/18 04:41:56;;;;;;;10.40;6.00;;;;;;;14.77;61.51;101373.08;109013;1267;23776;-79
2022/07/18 04:44:48;;;;;;;10.40;6.20;;;;;;;14.91;61.72;101376.68;108869;1270;21975;-78
2022/07/18 04:47:56;;;;;;;9.70;5.70;;;;;;;15.07;61.68;101381.31;108989;1267;21983;-77
2022/07/18 04:50:38;;;;;;;9.70;6.00;;;;;;;15.21;61.52;101384.73;108934;1270;22024;-77
2022/07/18 04:53:07;;;;;;;14.70;11.60;;;;;;;15.35;61.46;101392.31;108915;1267;23744;-77
2022/07/18 04:55:40;;;;;;;12.90;7.80;;;;;;;15.48;61.26;101392.79;108869;1269;21995;-76
2022/07/18 04:58:11;;;;;;;13.90;6.50;;;;;;;15.57;60.83;101388.70;109040;1263;21990;-76
2022/07/18 05:00:40;;;;;;;8.50;5.30;;;;;;;15.66;61.06;101386.31;108917;1267;21989;-76
2022/07/18 05:03:13;;;;;;;8.10;5.40;;;;;;;15.72;60.79;101386.35;109116;1267;21991;-76
2022/07/18 05:05:44;;;;;;;6.40;4.80;;;;;;;15.73;60.54;101387.58;108982;1267;23074;-77
2022/07/18 05:08:14;;;;;;;9.30;6.00;;;;;;;15.74;60.47;101382.55;109055;1267;22001;-76
2022/07/18 05:10:45;;;;;;;10.30;5.40;;;;;;;15.77;60.60;101380.95;109181;1267;23041;-77
2022/07/18 05:13:39;;;;;;;14.10;6.20;;;;;;;15.85;60.69;101377.92;108944;1267;22025;-76
2022/07/18 05:16:18;;;;;;;11.70;6.30;;;;;;;15.97;60.64;101376.20;108923;1267;22006;-77
2022/07/18 05:18:48;;;;;;;12.30;6.20;;;;;;;16.03;60.13;101377.20;108803;1270;22052;-77
2022/07/18 05:21:53;;;;;;;9.40;6.20;;;;;;;16.08;60.12;101378.31;108774;1269;21993;-76
2022/07/18 05:24:25;;;;;;;16.10;7.50;;;;;;;16.16;60.35;101380.34;108686;1270;23070;-76
2022/07/18 05:26:56;;;;;;;15.80;7.90;;;;;;;16.33;60.56;101381.57;109239;1266;22012;-76
2022/07/18 05:29:29;;;;;;;20.80;6.80;;;;;;;16.54;60.63;101388.34;108690;1270;21997;-76
2022/07/18 05:32:02;;;;;;;13.60;6.50;;;;;;;16.76;60.40;101389.50;108824;1270;22114;-77
2022/07/18 05:34:34;;;;;;;11.60;5.10;;;;;;;16.96;59.55;101386.02;108724;1270;23638;-76
2022/07/18 05:37:13;;;;;;;7.00;3.40;;;;;;;17.13;58.74;101387.48;108774;1270;21988;-76
2022/07/18 05:39:46;;;;;;;6.30;3.10;;;;;;;17.37;57.91;101389.29;108894;1270;23063;-77
2022/07/18 05:42:14;;;;;;;6.20;3.70;;;;;;;17.64;56.72;101389.16;108820;1270;21976;-77
2022/07/18 05:44:44;;;;;;;8.20;3.30;;;;;;;17.93;55.81;101393.09;109115;1267;23129;-76
2022/07/18 05:47:13;;;;;;;8.20;3.30;;;;;;;18.22;54.72;101390.08;109029;1263;22228;-76
2022/07/18 05:49:46;;;;;;;4.40;2.80;;;;;;;18.53;53.84;101389.58;109342;1263;21972;-77
2022/07/18 05:52:17;;;;;;;9.40;3.00;;;;;;;18.83;52.72;101390.10;109786;1263;22230;-79
2022/07/18 05:54:47;;;;;;;5.60;2.90;;;;;;;19.05;51.59;101389.94;109592;1262;22774;-78
2022/07/18 05:57:25;;;;;;;6.00;2.60;;;;;;;19.29;51.17;101393.25;108950;1267;23058;-79
2022/07/18 05:59:57;;;;;;;40.90;5.00;;;;;;;19.56;50.70;101388.09;108844;1268;21982;-76
2022/07/18 06:02:27;;;;;;;7.10;2.90;;;;;;;19.84;49.88;101385.65;108910;1266;23582;-75
2022/07/18 06:05:09;;;;;;;4.60;2.20;;;;;;;20.11;49.12;101387.66;108946;1266;22755;-75
2022/07/18 06:08:01;;;;;;;5.40;2.50;;;;;;;20.44;48.53;101384.95;109013;1266;22057;-76
2022/07/18 06:10:30;;;;;;;9.20;3.00;;;;;;;20.79;48.23;101382.94;109133;1267;21973;-77
2022/07/18 06:12:59;;;;;;;4.00;2.40;;;;;;;21.15;47.29;101382.20;108616;1273;21989;-76
2022/07/18 06:15:29;;;;;;;3.00;2.10;;;;;;;21.46;46.37;101383.70;108865;1267;23606;-76
2022/07/18 06:17:58;;;;;;;6.10;2.50;;;;;;;21.77;46.08;101378.83;108869;1267;23502;-76
2022/07/18 06:20:27;;;;;;;5.90;2.70;;;;;;;22.15;45.68;101378.02;109094;1267;23821;-76
2022/07/18 06:22:58;;;;;;;6.70;2.60;;;;;;;22.58;44.81;101376.48;109001;1267;23467;-76
2022/07/18 06:25:27;;;;;;;5.80;2.50;;;;;;;22.96;43.08;101373.16;108911;1266;22043;-75
2022/07/18 06:27:56;;;;;;;5.70;2.00;;;;;;;23.23;41.84;101377.48;108891;1267;22526;-76
2022/07/18 06:30:25;;;;;;;4.80;2.20;;;;;;;23.46;41.47;101380.77;109107;1262;21990;-77
2022/07/18 06:32:54;;;;;;;3.40;1.60;;;;;;;23.67;40.70;101381.98;109095;1267;22328;-76
2022/07/18 06:35:23;;;;;;;4.10;1.90;;;;;;;23.73;39.78;101380.83;109138;1267;21998;-76
2022/07/18 06:37:54;;;;;;;5.70;2.00;;;;;;;23.75;39.50;101380.59;108696;1271;21979;-76
2022/07/18 06:40:26;;;;;;;7.20;1.90;;;;;;;23.80;39.41;101381.75;108783;1270;21998;-76
2022/07/18 06:42:58;;;;;;;4.20;1.90;;;;;;;23.86;39.07;101382.88;108704;1270;23800;-76
2022/07/18 06:45:29;;;;;;;5.50;1.50;;;;;;;23.90;38.75;101382.60;108803;1270;23740;-75
2022/07/18 06:48:01;;;;;;;3.40;1.60;;;;;;;23.91;38.42;101382.30;108773;1270;22006;-76
2022/07/18 06:50:30;;;;;;;7.00;2.70;;;;;;;23.91;38.39;101378.26;108797;1267;23335;-76
2022/07/18 06:52:59;;;;;;;6.20;2.40;;;;;;;23.99;38.39;101377.04;109083;1267;24322;-76
2022/07/18 06:55:28;;;;;;;4.80;2.00;;;;;;;24.19;38.52;101377.69;108910;1267;22225;-76
2022/07/18 06:57:57;;;;;;;3.70;2.10;;;;;;;24.44;37.77;101380.05;109137;1266;21983;-76
2022/07/18 07:00:26;;;;;;;3.50;2.40;;;;;;;24.66;37.60;101377.36;109169;1267;21983;-78
2022/07/18 07:02:55;;;;;;;4.60;1.90;;;;;;;24.88;37.03;101376.73;109179;1266;23586;-76
2022/07/18 07:05:24;;;;;;;3.90;1.70;;;;;;;24.95;36.32;101371.61;109093;1267;21996;-76
2022/07/18 07:07:53;;;;;;;3.50;1.50;;;;;;;24.98;35.61;101373.55;109215;1267;23613;-75
2022/07/18 07:10:22;;;;;;;4.50;1.40;;;;;;;25.03;35.95;101373.61;108647;1273;22111;-76
2022/07/18 07:12:52;;;;;;;4.20;1.60;;;;;;;25.24;36.15;101373.57;108537;1270;23153;-76
2022/07/18 07:15:23;;;;;;;4.80;1.40;;;;;;;25.36;35.12;101376.45;108834;1270;22122;-75
2022/07/18 07:17:54;;;;;;;2.40;1.10;;;;;;;25.43;35.02;101378.31;108928;1270;21980;-77
2022/07/18 07:20:23;;;;;;;5.60;1.60;;;;;;;25.64;34.65;101378.97;108765;1270;21979;-76
2022/07/18 07:22:56;;;;;;;7.10;3.60;;;;;;;25.94;34.18;101378.59;109066;1267;21984;-76
2022/07/18 07:25:44;;;;;;;6.60;2.00;;;;;;;26.27;33.92;101375.98;109106;1267;21998;-76
2022/07/18 07:28:15;;;;;;;9.90;1.60;;;;;;;26.60;33.32;101374.40;109327;1261;23106;-76
2022/07/18 07:30:44;;;;;;;4.40;1.20;;;;;;;26.87;32.72;101377.45;109885;1261;21969;-75
2022/07/18 07:33:13;;;;;;;2.70;1.30;;;;;;;27.10;32.14;101375.05;109836;1260;24514;-76
2022/07/18 07:35:43;;;;;;;3.90;1.30;;;;;;;27.46;31.79;101373.18;109370;1260;23583;-76
2022/07/18 07:38:17;;;;;;;4.80;2.20;;;;;;;27.85;30.98;101375.15;109762;1260;23799;-76
2022/07/18 07:40:51;;;;;;;3.80;1.50;;;;;;;28.12;30.32;101372.17;109600;1260;23584;-76
2022/07/18 07:43:21;;;;;;;3.90;1.10;;;;;;;28.33;30.17;101369.11;109546;1260;23817;-76
2022/07/18 07:45:52;;;;;;;4.60;1.10;;;;;;;28.49;29.62;101366.58;109380;1260;23794;-76
2022/07/18 07:48:27;;;;;;;4.00;1.40;;;;;;;28.55;28.94;101364.00;109445;1260;23657;-76
2022/07/18 07:50:57;;;;;;;3.60;1.40;;;;;;;28.46;28.65;101361.45;109571;1261;21978;-76
2022/07/18 07:53:31;;;;;;;4.30;1.30;;;;;;;28.43;29.23;101355.90;108988;1265;21996;-76
2022/07/18 07:56:23;;;;;;;;;;;;;;;;;;;;;
2022/07/18 07:59:13;;;;;;;5.90;1.90;;;;;;;28.86;28.48;101354.91;109250;1264;22050;-78
2022/07/18 08:01:45;;;;;;;7.40;2.00;;;;;;;28.92;27.68;101355.64;109018;1264;21996;-77
2022/07/18 08:04:16;;;;;;;20.30;2.70;;;;;;;28.81;27.99;101356.59;109250;1264;22038;-77
2022/07/18 08:06:45;;;;;;;5.30;1.60;;;;;;;28.59;28.91;101361.91;109246;1265;21970;-78
2022/07/18 08:09:17;;;;;;;209.00;27.20;;;;;;;28.37;28.69;101360.73;109213;1268;21994;-79
2022/07/18 08:12:01;;;;;;;7.50;2.30;;;;;;;28.23;29.01;101358.08;108907;1267;22045;-78
2022/07/18 08:14:37;;;;;;;5.00;1.80;;;;;;;28.11;28.79;101361.67;108483;1273;22793;-79
2022/07/18 08:17:06;;;;;;;7.90;2.70;;;;;;;27.89;28.48;101360.70;108381;1275;22352;-81
2022/07/18 08:19:51;;;;;;;5.30;2.30;;;;;;;27.74;28.75;101357.99;108428;1279;23024;-80
2022/07/18 08:22:21;;;;;;;11.50;2.60;;;;;;;27.74;29.29;101353.05;108251;1280;22051;-80
2022/07/18 08:24:50;;;;;;;13.30;3.00;;;;;;;27.85;29.45;101355.02;108372;1278;22114;-79
2022/07/18 08:27:22;;;;;;;7.00;2.40;;;;;;;28.03;29.46;101352.88;107839;1284;23097;-78
2022/07/18 08:29:51;;;;;;;9.50;3.00;;;;;;;28.18;29.28;101349.83;107560;1288;23776;-75
2022/07/18 08:32:36;;;;;;;6.40;1.60;;;;;;;28.34;28.44;101344.13;107505;1288;22116;-76
2022/07/18 08:35:07;;;;;;;7.80;1.70;;;;;;;28.24;28.09;101342.54;107635;1283;23666;-75
2022/07/18 08:37:36;;;;;;;15.70;3.30;;;;;;;28.03;28.36;101343.80;108063;1279;23102;-76
2022/07/18 08:40:28;;;;;;;4.10;2.00;;;;;;;27.75;28.74;101345.46;108700;1270;22441;-76
2022/07/18 08:43:05;;;;;;;6.20;2.10;;;;;;;27.46;29.05;101346.20;108496;1274;23717;-76
2022/07/18 08:46:04;;;;;;;4.60;1.90;;;;;;;27.24;29.24;101351.02;108872;1267;21989;-76
2022/07/18 08:48:36;;;;;;;6.00;1.90;;;;;;;27.10;29.29;101350.84;109410;1263;22460;-75
2022/07/18 08:51:05;;;;;;;5.60;1.60;;;;;;;26.99;29.23;101347.84;109757;1262;22380;-76
2022/07/18 08:53:37;;;;;;;6.50;2.60;;;;;;;26.96;29.50;101350.52;108985;1266;23685;-76
2022/07/18 08:56:06;;;;;;;3.10;2.00;;;;;;;26.95;29.82;101352.14;108985;1266;22222;-76
2022/07/18 08:58:38;;;;;;;3.50;1.60;;;;;;;27.00;29.83;101353.16;108866;1266;21979;-76
2022/07/18 09:01:13;;;;;;;5.40;2.00;;;;;;;27.22;29.86;101351.86;108985;1267;22343;-76
2022/07/18 09:03:44;;;;;;;4.90;1.80;;;;;;;27.42;29.35;101351.00;108893;1266;23097;-75
2022/07/18 09:06:14;;;;;;;3.40;1.80;;;;;;;27.54;29.13;101344.81;109094;1267;23098;-76
2022/07/18 09:09:01;;;;;;;4.00;1.50;;;;;;;27.64;29.47;101347.63;108848;1266;23143;-75
2022/07/18 09:11:30;;;;;;;4.10;2.00;;;;;;;27.85;29.71;101347.89;108604;1267;22263;-76
2022/07/18 09:14:54;;;;;;;5.90;1.80;;;;;;;28.11;28.83;101347.94;108949;1267;22318;-75
2022/07/18 09:17:29;;;;;;;5.30;1.50;;;;;;;28.32;28.31;101349.38;108445;1273;22012;-76
2022/07/18 09:20:11;;;;;;;3.60;1.40;;;;;;;28.44;27.75;101352.46;108334;1279;22778;-76
2022/07/18 09:22:47;;;;;;;5.20;1.60;;;;;;;28.50;27.38;101351.26;108321;1279;22013;-76
2022/07/18 09:25:21;;;;;;;5.30;2.10;;;;;;;28.54;27.46;101350.63;108372;1279;22014;-76
2022/07/18 09:27:54;;;;;;;6.90;1.50;;;;;;;28.47;27.05;101353.41;107962;1282;23619;-76
2022/07/18 09:30:35;;;;;;;7.80;1.30;;;;;;;28.42;27.66;101355.72;108271;1276;23639;-75
2022/07/18 09:33:10;;;;;;;8.70;2.10;;;;;;;28.40;27.96;101358.04;108057;1280;23582;-76
2022/07/18 09:35:50;;;;;;;4.50;1.60;;;;;;;28.50;28.01;101357.83;108020;1279;21994;-76
2022/07/18 09:38:29;;;;;;;4.50;1.60;;;;;;;28.72;27.94;101360.73;108018;1279;23086;-76
2022/07/18 09:40:59;;;;;;;9.60;3.10;;;;;;;28.94;27.24;101355.23;108177;1279;22084;-77
2022/07/18 09:43:37;;;;;;;7.70;1.80;;;;;;;29.20;26.91;101355.01;108237;1279;22012;-76
2022/07/18 09:46:07;;;;;;;5.20;1.40;;;;;;;29.35;26.53;101357.39;108399;1279;22001;-76
2022/07/18 09:48:37;;;;;;;;;;;;;;;29.42;25.98;101357.11;107930;1283;22032;-76
2022/07/18 09:51:09;;;;;;;4.90;1.50;;;;;;;29.34;25.94;101355.36;108097;1275;22052;-76
2022/07/18 09:53:50;;;;;;;3.80;1.50;;;;;;;29.38;26.53;101354.50;108520;1270;22084;-76
2022/07/18 09:56:25;;;;;;;4.20;1.60;;;;;;;29.48;26.05;101351.85;108716;1270;22015;-77
2022/07/18 09:58:56;;;;;;;2.80;1.30;;;;;;;29.43;25.58;101349.29;108445;1273;22762;-77
2022/07/18 10:01:29;;;;;;;5.60;1.90;;;;;;;29.35;25.64;101349.11;108411;1273;22027;-76
2022/07/18 10:04:00;;;;;;;5.50;2.10;;;;;;;29.36;26.06;101350.95;108379;1278;22009;-75
2022/07/18 10:06:31;;;;;;;3.00;1.20;;;;;;;29.49;25.66;101345.69;108469;1273;21988;-75
2022/07/18 10:09:00;;;;;;;3.70;1.60;;;;;;;29.65;25.05;101344.16;108692;1270;21973;-75
2022/07/18 10:11:29;;;;;;;4.70;1.40;;;;;;;29.73;25.14;101345.90;108702;1273;22047;-77
2022/07/18 10:13:59;;;;;;;6.40;1.70;;;;;;;29.76;25.44;101344.88;108900;1270;22017;-76
2022/07/18 10:16:29;;;;;;;3.80;1.30;;;;;;;29.83;25.23;101343.40;108824;1267;22000;-76
2022/07/18 10:18:59;;;;;;;3.60;1.60;;;;;;;29.82;24.98;101342.96;108635;1272;23780;-75
2022/07/18 10:21:30;;;;;;;3.20;1.40;;;;;;;29.84;25.02;101343.67;108307;1276;23115;-76
2022/07/18 10:24:01;;;;;;;3.30;1.50;;;;;;;29.86;24.91;101341.05;108501;1273;22055;-77
2022/07/18 10:26:31;;;;;;;5.40;1.90;;;;;;;29.83;24.70;101338.73;108536;1273;23741;-76
2022/07/18 10:29:02;;;;;;;5.40;1.70;;;;;;;29.81;25.18;101338.35;108617;1273;22057;-77
2022/07/18 10:31:43;;;;;;;4.00;1.70;;;;;;;29.80;25.33;101335.29;108615;1277;22381;-77
2022/07/18 10:34:36;;;;;;;2.90;1.40;;;;;;;29.82;25.18;101332.23;108160;1282;22879;-76
2022/07/18 10:37:06;;;;;;;5.70;1.70;;;;;;;29.80;25.18;101331.86;108168;1276;22058;-76
2022/07/18 10:39:45;;;;;;;5.40;1.50;;;;;;;29.79;25.38;101330.83;108505;1273;22088;-77
2022/07/18 10:42:18;;;;;;;3.50;1.30;;;;;;;29.71;25.18;101328.33;108685;1273;22276;-77
2022/07/18 10:44:47;;;;;;;3.30;1.50;;;;;;;29.63;25.17;101325.80;108474;1273;22001;-77
2022/07/18 10:47:20;;;;;;;3.50;1.10;;;;;;;29.55;25.40;101323.60;108674;1271;23184;-76
2022/07/18 10:49:52;;;;;;;2.90;1.30;;;;;;;29.43;25.46;101319.67;108653;1267;21995;-76
2022/07/18 10:52:24;;;;;;;5.20;1.40;;;;;;;29.38;25.18;101314.49;109129;1263;23641;-76
2022/07/18 10:55:03;;;;;;;6.00;1.70;;;;;;;29.21;24.62;101310.77;109658;1263;22436;-76
2022/07/18 10:57:42;;;;;;;3.10;1.30;;;;;;;28.99;25.45;101305.95;109588;1263;22753;-77
2022/07/18 11:00:25;;;;;;;3.20;1.50;;;;;;;28.90;25.78;101298.80;109259;1263;21995;-76
2022/07/18 11:03:00;;;;;;;4.30;1.70;;;;;;;28.80;25.98;101297.99;108873;1269;22945;-76
2022/07/18 11:05:29;;;;;;;3.20;1.30;;;;;;;28.75;26.05;101297.33;109016;1269;22049;-76
2022/07/18 11:08:01;;;;;;;4.60;1.50;;;;;;;28.62;26.14;101297.66;108704;1273;22030;-76
2022/07/18 11:10:50;;;;;;;3.90;1.50;;;;;;;28.49;26.03;101289.29;108681;1273;23634;-76
2022/07/18 11:16:13;;;;;;;8.20;1.70;;;;;;;28.17;25.81;101285.71;108415;1276;22024;-76
2022/07/18 11:18:43;;;;;;;2.70;1.40;;;;;;;28.01;26.22;101284.15;108470;1276;24367;-76
2022/07/18 11:21:27;;;;;;;4.80;1.70;;;;;;;27.93;26.49;101279.04;108674;1270;22779;-76
2022/07/18 11:24:11;;;;;;;3.40;1.30;;;;;;;27.83;26.79;101274.95;108650;1273;23083;-77
2022/07/18 11:26:47;;;;;;;2.40;1.20;;;;;;;27.71;26.80;101274.73;108618;1269;23190;-76
2022/07/18 11:29:20;;;;;;;2.70;1.30;;;;;;;27.60;26.85;101276.59;108741;1270;23869;-76
2022/07/18 11:31:57;;;;;;;3.40;1.30;;;;;;;27.54;27.05;101272.42;108893;1270;23797;-76
2022/07/18 11:34:26;;;;;;;6.70;2.10;;;;;;;27.47;26.69;101265.52;109095;1267;22018;-76
2022/07/18 11:37:17;;;;;;;8.10;2.40;;;;;;;27.40;26.90;101264.05;109113;1267;23632;-76
2022/07/18 11:39:49;;;;;;;3.80;1.50;;;;;;;27.35;27.18;101261.39;109121;1267;22131;-75
2022/07/18 11:42:35;;;;;;;4.30;1.30;;;;;;;27.33;27.43;101257.42;109389;1264;23606;-76
2022/07/18 11:45:14;;;;;;;7.20;1.70;;;;;;;27.29;27.41;101257.92;109600;1261;22036;-76
2022/07/18 11:47:53;;;;;;;4.80;1.50;;;;;;;27.26;27.67;101255.77;109519;1261;22743;-75